sensor_id;sensor_type;location;lat;lon;timestamp;temperature;humidity
19192;DHT22;9728;48.194;16.346;2024-03-02T00:05:02;17.20;72.40
19192;DHT22;9728;48.194;16.346;2024-03-02T00:10:09;17.20;72.40
19192;DHT22;9728;48.194;16.346;2024-03-02T00:15:43;17.20;72.60
19192;DHT22;9728;48.194;16.346;2024-03-02T00:20:49;17.10;72.80
19192;DHT22;9728;48.194;16.346;2024-03-02T00:25:57;17.10;73.30
19192;DHT22;9728;48.194;16.346;2024-03-02T00:31:04;17.10;72.60
19192;DHT22;9728;48.194;16.346;2024-03-02T00:36:08;17.00;72.50
19192;DHT22;9728;48.194;16.346;2024-03-02T00:41:17;17.00;72.60
19192;DHT22;9728;48.194;16.346;2024-03-02T00:46:22;17.00;72.90
19192;DHT22;9728;48.194;16.346;2024-03-02T00:51:27;16.90;72.60
19192;DHT22;9728;48.194;16.346;2024-03-02T00:56:33;16.90;72.70
19192;DHT22;9728;48.194;16.346;2024-03-02T01:01:37;16.90;72.80
19192;DHT22;9728;48.194;16.346;2024-03-02T01:06:41;16.90;72.80
19192;DHT22;9728;48.194;16.346;2024-03-02T01:11:46;16.80;72.80
19192;DHT22;9728;48.194;16.346;2024-03-02T01:16:49;16.80;72.90
19192;DHT22;9728;48.194;16.346;2024-03-02T01:21:53;16.80;72.80
19192;DHT22;9728;48.194;16.346;2024-03-02T01:26:58;16.70;72.80
19192;DHT22;9728;48.194;16.346;2024-03-02T01:32:01;16.70;73.00
19192;DHT22;9728;48.194;16.346;2024-03-02T01:37:05;16.70;73.00
19192;DHT22;9728;48.194;16.346;2024-03-02T01:42:09;16.70;73.00
19192;DHT22;9728;48.194;16.346;2024-03-02T01:47:13;16.60;73.10
19192;DHT22;9728;48.194;16.346;2024-03-02T01:52:17;16.60;73.00
19192;DHT22;9728;48.194;16.346;2024-03-02T01:57:21;16.60;73.10
19192;DHT22;9728;48.194;16.346;2024-03-02T02:02:25;16.60;73.30
19192;DHT22;9728;48.194;16.346;2024-03-02T02:07:29;16.50;73.20
19192;DHT22;9728;48.194;16.346;2024-03-02T02:12:35;16.50;73.30
19192;DHT22;9728;48.194;16.346;2024-03-02T02:17:38;16.50;73.50
19192;DHT22;9728;48.194;16.346;2024-03-02T02:22:57;16.50;73.50
19192;DHT22;9728;48.194;16.346;2024-03-02T02:28:01;16.40;74.00
19192;DHT22;9728;48.194;16.346;2024-03-02T02:33:05;16.50;73.50
19192;DHT22;9728;48.194;16.346;2024-03-02T02:38:09;16.50;73.60
19192;DHT22;9728;48.194;16.346;2024-03-02T02:43:13;16.40;73.60
19192;DHT22;9728;48.194;16.346;2024-03-02T02:48:16;16.40;73.50
19192;DHT22;9728;48.194;16.346;2024-03-02T02:53:21;16.40;73.60
19192;DHT22;9728;48.194;16.346;2024-03-02T02:58:25;16.40;73.60
19192;DHT22;9728;48.194;16.346;2024-03-02T03:03:28;16.40;73.50
19192;DHT22;9728;48.194;16.346;2024-03-02T03:08:33;16.40;73.50
19192;DHT22;9728;48.194;16.346;2024-03-02T03:13:36;16.30;73.50
19192;DHT22;9728;48.194;16.346;2024-03-02T03:18:40;16.30;73.40
19192;DHT22;9728;48.194;16.346;2024-03-02T03:23:45;16.30;73.50
19192;DHT22;9728;48.194;16.346;2024-03-02T03:28:48;16.30;73.60
19192;DHT22;9728;48.194;16.346;2024-03-02T03:33:51;16.30;73.60
19192;DHT22;9728;48.194;16.346;2024-03-02T03:38:56;16.30;73.40
19192;DHT22;9728;48.194;16.346;2024-03-02T03:44:00;16.20;73.40
19192;DHT22;9728;48.194;16.346;2024-03-02T03:49:03;16.20;73.40
19192;DHT22;9728;48.194;16.346;2024-03-02T03:54:08;16.20;73.40
19192;DHT22;9728;48.194;16.346;2024-03-02T03:59:13;16.10;73.40
19192;DHT22;9728;48.194;16.346;2024-03-02T04:04:16;16.10;73.40
19192;DHT22;9728;48.194;16.346;2024-03-02T04:09:21;16.10;73.40
19192;DHT22;9728;48.194;16.346;2024-03-02T04:14:25;16.10;73.60
19192;DHT22;9728;48.194;16.346;2024-03-02T04:19:28;16.00;73.40
19192;DHT22;9728;48.194;16.346;2024-03-02T04:24:33;16.00;73.50
19192;DHT22;9728;48.194;16.346;2024-03-02T04:29:36;16.00;73.60
19192;DHT22;9728;48.194;16.346;2024-03-02T04:34:40;16.00;73.60
19192;DHT22;9728;48.194;16.346;2024-03-02T04:39:44;15.90;73.60
19192;DHT22;9728;48.194;16.346;2024-03-02T04:44:48;15.90;73.60
19192;DHT22;9728;48.194;16.346;2024-03-02T04:49:52;15.80;73.60
19192;DHT22;9728;48.194;16.346;2024-03-02T04:54:56;15.90;73.60
19192;DHT22;9728;48.194;16.346;2024-03-02T05:00:17;15.80;73.70
19192;DHT22;9728;48.194;16.346;2024-03-02T05:05:21;15.80;73.60
19192;DHT22;9728;48.194;16.346;2024-03-02T05:10:26;15.70;73.60
19192;DHT22;9728;48.194;16.346;2024-03-02T05:15:29;15.70;73.80
19192;DHT22;9728;48.194;16.346;2024-03-02T05:20:32;15.70;73.60
19192;DHT22;9728;48.194;16.346;2024-03-02T05:25:38;15.60;73.70
19192;DHT22;9728;48.194;16.346;2024-03-02T05:30:42;15.60;74.00
19192;DHT22;9728;48.194;16.346;2024-03-02T05:35:46;15.50;73.90
19192;DHT22;9728;48.194;16.346;2024-03-02T05:40:51;15.50;73.90
19192;DHT22;9728;48.194;16.346;2024-03-02T05:45:54;15.50;74.40
19192;DHT22;9728;48.194;16.346;2024-03-02T05:50:58;15.50;74.30
19192;DHT22;9728;48.194;16.346;2024-03-02T05:56:03;15.50;74.40
19192;DHT22;9728;48.194;16.346;2024-03-02T06:01:07;15.40;74.50
19192;DHT22;9728;48.194;16.346;2024-03-02T06:06:10;15.40;74.30
19192;DHT22;9728;48.194;16.346;2024-03-02T06:11:15;15.40;74.40
19192;DHT22;9728;48.194;16.346;2024-03-02T06:16:20;15.30;74.60
19192;DHT22;9728;48.194;16.346;2024-03-02T06:21:23;15.30;74.60
19192;DHT22;9728;48.194;16.346;2024-03-02T06:26:28;15.30;74.50
19192;DHT22;9728;48.194;16.346;2024-03-02T06:31:32;15.30;74.70
19192;DHT22;9728;48.194;16.346;2024-03-02T06:36:36;15.30;74.50
19192;DHT22;9728;48.194;16.346;2024-03-02T06:41:41;15.30;74.60
19192;DHT22;9728;48.194;16.346;2024-03-02T06:46:44;15.30;74.70
19192;DHT22;9728;48.194;16.346;2024-03-02T06:51:48;15.30;74.60
19192;DHT22;9728;48.194;16.346;2024-03-02T06:56:53;15.20;74.50
19192;DHT22;9728;48.194;16.346;2024-03-02T07:01:56;15.20;74.70
19192;DHT22;9728;48.194;16.346;2024-03-02T07:07:00;15.20;74.80
19192;DHT22;9728;48.194;16.346;2024-03-02T07:12:05;15.20;75.00
19192;DHT22;9728;48.194;16.346;2024-03-02T07:17:09;15.20;75.10
19192;DHT22;9728;48.194;16.346;2024-03-02T07:22:13;15.20;75.10
19192;DHT22;9728;48.194;16.346;2024-03-02T07:27:18;15.20;75.10
19192;DHT22;9728;48.194;16.346;2024-03-02T07:32:21;15.20;75.40
19192;DHT22;9728;48.194;16.346;2024-03-02T07:37:25;15.20;75.40
19192;DHT22;9728;48.194;16.346;2024-03-02T07:42:29;15.20;75.40
19192;DHT22;9728;48.194;16.346;2024-03-02T07:47:33;15.20;75.50
19192;DHT22;9728;48.194;16.346;2024-03-02T07:52:37;15.20;75.50
19192;DHT22;9728;48.194;16.346;2024-03-02T07:57:42;15.20;75.50
19192;DHT22;9728;48.194;16.346;2024-03-02T08:02:45;15.20;75.70
19192;DHT22;9728;48.194;16.346;2024-03-02T08:07:49;15.30;75.60
19192;DHT22;9728;48.194;16.346;2024-03-02T08:12:56;15.30;75.60
19192;DHT22;9728;48.194;16.346;2024-03-02T08:18:00;15.30;75.70
19192;DHT22;9728;48.194;16.346;2024-03-02T08:23:04;15.30;75.70
19192;DHT22;9728;48.194;16.346;2024-03-02T08:28:09;15.40;75.80
19192;DHT22;9728;48.194;16.346;2024-03-02T08:33:13;15.40;75.80
19192;DHT22;9728;48.194;16.346;2024-03-02T08:38:16;15.40;75.70
19192;DHT22;9728;48.194;16.346;2024-03-02T08:43:22;15.50;75.70
19192;DHT22;9728;48.194;16.346;2024-03-02T08:48:25;15.50;75.80
19192;DHT22;9728;48.194;16.346;2024-03-02T08:53:29;15.60;75.80
19192;DHT22;9728;48.194;16.346;2024-03-02T08:58:34;15.60;75.70
19192;DHT22;9728;48.194;16.346;2024-03-02T09:03:38;15.70;75.90
19192;DHT22;9728;48.194;16.346;2024-03-02T09:08:42;15.70;75.80
19192;DHT22;9728;48.194;16.346;2024-03-02T09:13:47;15.70;75.90
19192;DHT22;9728;48.194;16.346;2024-03-02T09:18:50;15.80;76.00
19192;DHT22;9728;48.194;16.346;2024-03-02T09:23:54;15.90;75.90
19192;DHT22;9728;48.194;16.346;2024-03-02T09:29:00;16.00;76.20
19192;DHT22;9728;48.194;16.346;2024-03-02T09:34:03;16.10;76.30
19192;DHT22;9728;48.194;16.346;2024-03-02T09:39:07;16.20;76.10
19192;DHT22;9728;48.194;16.346;2024-03-02T09:44:13;16.30;76.20
19192;DHT22;9728;48.194;16.346;2024-03-02T09:49:16;16.30;76.10
19192;DHT22;9728;48.194;16.346;2024-03-02T09:54:19;16.50;76.70
19192;DHT22;9728;48.194;16.346;2024-03-02T09:59:26;16.50;76.40
19192;DHT22;9728;48.194;16.346;2024-03-02T10:04:31;16.60;76.30
19192;DHT22;9728;48.194;16.346;2024-03-02T10:09:35;16.70;76.20
19192;DHT22;9728;48.194;16.346;2024-03-02T10:14:40;16.80;76.20
19192;DHT22;9728;48.194;16.346;2024-03-02T10:19:43;16.80;76.20
19192;DHT22;9728;48.194;16.346;2024-03-02T10:24:46;16.90;76.20
19192;DHT22;9728;48.194;16.346;2024-03-02T10:29:57;17.00;76.20
19192;DHT22;9728;48.194;16.346;2024-03-02T10:35:01;17.00;76.20
19192;DHT22;9728;48.194;16.346;2024-03-02T10:40:06;17.10;76.10
19192;DHT22;9728;48.194;16.346;2024-03-02T10:45:12;17.20;76.10
19192;DHT22;9728;48.194;16.346;2024-03-02T10:50:17;17.30;76.20
19192;DHT22;9728;48.194;16.346;2024-03-02T10:55:20;17.30;76.10
19192;DHT22;9728;48.194;16.346;2024-03-02T11:00:29;17.40;76.10
19192;DHT22;9728;48.194;16.346;2024-03-02T11:05:39;17.50;76.30
19192;DHT22;9728;48.194;16.346;2024-03-02T11:10:50;17.60;76.10
19192;DHT22;9728;48.194;16.346;2024-03-02T11:15:59;17.60;76.10
19192;DHT22;9728;48.194;16.346;2024-03-02T11:21:03;17.70;76.10
19192;DHT22;9728;48.194;16.346;2024-03-02T11:26:19;17.80;76.10
19192;DHT22;9728;48.194;16.346;2024-03-02T11:32:00;17.80;76.50
19192;DHT22;9728;48.194;16.346;2024-03-02T11:37:04;17.90;76.50
19192;DHT22;9728;48.194;16.346;2024-03-02T11:42:07;18.00;76.10
19192;DHT22;9728;48.194;16.346;2024-03-02T11:47:14;18.10;76.10
19192;DHT22;9728;48.194;16.346;2024-03-02T11:52:19;18.20;76.00
19192;DHT22;9728;48.194;16.346;2024-03-02T11:57:23;18.20;75.80
19192;DHT22;9728;48.194;16.346;2024-03-02T12:02:29;18.30;75.70
19192;DHT22;9728;48.194;16.346;2024-03-02T12:07:33;18.30;75.50
19192;DHT22;9728;48.194;16.346;2024-03-02T12:12:37;18.30;75.80
19192;DHT22;9728;48.194;16.346;2024-03-02T12:17:42;18.40;75.50
19192;DHT22;9728;48.194;16.346;2024-03-02T12:22:46;18.40;75.40
19192;DHT22;9728;48.194;16.346;2024-03-02T12:27:51;18.50;75.50
19192;DHT22;9728;48.194;16.346;2024-03-02T12:32:56;18.50;75.50
19192;DHT22;9728;48.194;16.346;2024-03-02T12:38:00;18.60;75.60
19192;DHT22;9728;48.194;16.346;2024-03-02T12:43:05;18.60;75.60
19192;DHT22;9728;48.194;16.346;2024-03-02T12:48:10;18.70;75.70
19192;DHT22;9728;48.194;16.346;2024-03-02T12:53:16;18.80;75.60
19192;DHT22;9728;48.194;16.346;2024-03-02T12:58:21;18.90;75.60
19192;DHT22;9728;48.194;16.346;2024-03-02T13:03:26;19.00;75.50
19192;DHT22;9728;48.194;16.346;2024-03-02T13:08:33;19.00;75.20
19192;DHT22;9728;48.194;16.346;2024-03-02T13:13:36;19.10;75.10
19192;DHT22;9728;48.194;16.346;2024-03-02T13:18:41;19.10;74.80
19192;DHT22;9728;48.194;16.346;2024-03-02T13:23:45;19.20;74.70
19192;DHT22;9728;48.194;16.346;2024-03-02T13:28:48;19.20;74.70
19192;DHT22;9728;48.194;16.346;2024-03-02T13:33:53;19.20;74.60
19192;DHT22;9728;48.194;16.346;2024-03-02T13:38:57;19.20;74.60
19192;DHT22;9728;48.194;16.346;2024-03-02T13:44:00;19.30;74.60
19192;DHT22;9728;48.194;16.346;2024-03-02T13:49:05;19.30;74.50
19192;DHT22;9728;48.194;16.346;2024-03-02T13:54:09;19.30;74.30
19192;DHT22;9728;48.194;16.346;2024-03-02T13:59:12;19.40;74.30
19192;DHT22;9728;48.194;16.346;2024-03-02T14:04:17;19.40;74.20
19192;DHT22;9728;48.194;16.346;2024-03-02T14:09:20;19.40;74.20
19192;DHT22;9728;48.194;16.346;2024-03-02T14:14:28;19.50;74.20
19192;DHT22;9728;48.194;16.346;2024-03-02T14:19:33;19.50;74.00
19192;DHT22;9728;48.194;16.346;2024-03-02T14:24:37;19.50;73.90
19192;DHT22;9728;48.194;16.346;2024-03-02T14:29:42;19.60;73.80
19192;DHT22;9728;48.194;16.346;2024-03-02T14:34:47;19.60;73.80
19192;DHT22;9728;48.194;16.346;2024-03-02T14:39:50;19.60;73.80
19192;DHT22;9728;48.194;16.346;2024-03-02T14:44:54;19.60;73.70
19192;DHT22;9728;48.194;16.346;2024-03-02T14:49:59;19.60;73.60
19192;DHT22;9728;48.194;16.346;2024-03-02T14:55:02;19.60;73.50
19192;DHT22;9728;48.194;16.346;2024-03-02T15:00:11;19.60;73.40
19192;DHT22;9728;48.194;16.346;2024-03-02T15:05:16;19.60;73.40
19192;DHT22;9728;48.194;16.346;2024-03-02T15:10:20;19.50;73.10
19192;DHT22;9728;48.194;16.346;2024-03-02T15:15:23;19.50;73.30
19192;DHT22;9728;48.194;16.346;2024-03-02T15:20:28;19.40;73.30
19192;DHT22;9728;48.194;16.346;2024-03-02T15:25:31;19.40;73.30
19192;DHT22;9728;48.194;16.346;2024-03-02T15:30:34;19.40;73.40
19192;DHT22;9728;48.194;16.346;2024-03-02T15:35:40;19.40;73.30
19192;DHT22;9728;48.194;16.346;2024-03-02T15:40:43;19.40;73.20
19192;DHT22;9728;48.194;16.346;2024-03-02T15:45:46;19.40;73.30
19192;DHT22;9728;48.194;16.346;2024-03-02T15:50:51;19.40;73.10
19192;DHT22;9728;48.194;16.346;2024-03-02T15:55:55;19.30;73.20
19192;DHT22;9728;48.194;16.346;2024-03-02T16:00:59;19.30;73.20
19192;DHT22;9728;48.194;16.346;2024-03-02T16:06:04;19.30;73.20
19192;DHT22;9728;48.194;16.346;2024-03-02T16:11:08;19.30;73.30
19192;DHT22;9728;48.194;16.346;2024-03-02T16:16:12;19.30;73.20
19192;DHT22;9728;48.194;16.346;2024-03-02T16:21:17;19.30;73.20
19192;DHT22;9728;48.194;16.346;2024-03-02T16:26:22;19.20;73.20
19192;DHT22;9728;48.194;16.346;2024-03-02T16:31:25;19.20;73.20
19192;DHT22;9728;48.194;16.346;2024-03-02T16:36:30;19.20;73.30
19192;DHT22;9728;48.194;16.346;2024-03-02T16:41:37;19.20;73.20
19192;DHT22;9728;48.194;16.346;2024-03-02T16:46:45;19.10;73.10
19192;DHT22;9728;48.194;16.346;2024-03-02T16:51:50;19.10;73.20
19192;DHT22;9728;48.194;16.346;2024-03-02T16:56:54;19.10;73.20
19192;DHT22;9728;48.194;16.346;2024-03-02T17:01:57;19.00;73.20
19192;DHT22;9728;48.194;16.346;2024-03-02T17:07:03;18.90;73.20
19192;DHT22;9728;48.194;16.346;2024-03-02T17:12:07;18.90;73.40
19192;DHT22;9728;48.194;16.346;2024-03-02T17:17:11;18.80;73.30
19192;DHT22;9728;48.194;16.346;2024-03-02T17:22:17;18.80;73.50
19192;DHT22;9728;48.194;16.346;2024-03-02T17:27:21;18.70;73.50
19192;DHT22;9728;48.194;16.346;2024-03-02T17:32:24;18.60;73.50
19192;DHT22;9728;48.194;16.346;2024-03-02T17:37:29;18.60;73.60
19192;DHT22;9728;48.194;16.346;2024-03-02T17:42:33;18.60;73.80
19192;DHT22;9728;48.194;16.346;2024-03-02T17:47:37;18.50;73.80
19192;DHT22;9728;48.194;16.346;2024-03-02T17:52:42;18.50;73.90
19192;DHT22;9728;48.194;16.346;2024-03-02T17:57:46;18.50;74.00
19192;DHT22;9728;48.194;16.346;2024-03-02T18:02:51;18.40;73.90
19192;DHT22;9728;48.194;16.346;2024-03-02T18:07:56;18.40;74.00
19192;DHT22;9728;48.194;16.346;2024-03-02T18:12:59;18.30;74.10
19192;DHT22;9728;48.194;16.346;2024-03-02T18:18:03;18.30;74.10
19192;DHT22;9728;48.194;16.346;2024-03-02T18:23:09;18.30;74.20
19192;DHT22;9728;48.194;16.346;2024-03-02T18:28:12;18.30;74.30
19192;DHT22;9728;48.194;16.346;2024-03-02T18:33:16;18.20;74.30
19192;DHT22;9728;48.194;16.346;2024-03-02T18:38:21;18.20;74.40
19192;DHT22;9728;48.194;16.346;2024-03-02T18:43:24;18.20;74.50
19192;DHT22;9728;48.194;16.346;2024-03-02T18:48:28;18.10;74.40
19192;DHT22;9728;48.194;16.346;2024-03-02T18:53:34;18.10;74.40
19192;DHT22;9728;48.194;16.346;2024-03-02T18:58:37;18.00;74.50
19192;DHT22;9728;48.194;16.346;2024-03-02T19:03:41;18.00;74.60
19192;DHT22;9728;48.194;16.346;2024-03-02T19:08:46;18.00;74.60
19192;DHT22;9728;48.194;16.346;2024-03-02T19:13:49;18.00;74.70
19192;DHT22;9728;48.194;16.346;2024-03-02T19:18:54;18.00;74.60
19192;DHT22;9728;48.194;16.346;2024-03-02T19:23:59;17.90;74.60
19192;DHT22;9728;48.194;16.346;2024-03-02T19:29:03;17.90;74.70
19192;DHT22;9728;48.194;16.346;2024-03-02T19:34:07;17.80;74.60
19192;DHT22;9728;48.194;16.346;2024-03-02T19:39:13;17.80;74.70
19192;DHT22;9728;48.194;16.346;2024-03-02T19:44:17;17.80;74.80
19192;DHT22;9728;48.194;16.346;2024-03-02T19:49:21;17.80;74.80
19192;DHT22;9728;48.194;16.346;2024-03-02T19:54:27;17.80;74.80
19192;DHT22;9728;48.194;16.346;2024-03-02T19:59:31;17.80;75.10
19192;DHT22;9728;48.194;16.346;2024-03-02T20:04:35;17.70;75.10
19192;DHT22;9728;48.194;16.346;2024-03-02T20:09:40;17.70;75.30
19192;DHT22;9728;48.194;16.346;2024-03-02T20:14:44;17.80;75.50
19192;DHT22;9728;48.194;16.346;2024-03-02T20:19:48;17.70;75.30
19192;DHT22;9728;48.194;16.346;2024-03-02T20:24:54;17.70;75.10
19192;DHT22;9728;48.194;16.346;2024-03-02T20:29:57;17.70;75.10
19192;DHT22;9728;48.194;16.346;2024-03-02T20:35:01;17.70;75.00
19192;DHT22;9728;48.194;16.346;2024-03-02T20:40:07;17.70;74.90
19192;DHT22;9728;48.194;16.346;2024-03-02T20:45:11;17.70;75.00
19192;DHT22;9728;48.194;16.346;2024-03-02T20:50:18;17.70;74.90
19192;DHT22;9728;48.194;16.346;2024-03-02T20:55:23;17.60;74.90
19192;DHT22;9728;48.194;16.346;2024-03-02T21:00:26;17.60;75.00
19192;DHT22;9728;48.194;16.346;2024-03-02T21:05:30;17.60;74.90
19192;DHT22;9728;48.194;16.346;2024-03-02T21:10:36;17.50;74.90
19192;DHT22;9728;48.194;16.346;2024-03-02T21:15:40;17.50;75.10
19192;DHT22;9728;48.194;16.346;2024-03-02T21:20:43;17.50;75.00
19192;DHT22;9728;48.194;16.346;2024-03-02T21:25:49;17.50;75.00
19192;DHT22;9728;48.194;16.346;2024-03-02T21:30:52;17.50;75.10
19192;DHT22;9728;48.194;16.346;2024-03-02T21:35:56;17.40;75.00
19192;DHT22;9728;48.194;16.346;2024-03-02T21:41:01;17.40;75.00
19192;DHT22;9728;48.194;16.346;2024-03-02T21:46:04;17.30;75.00
19192;DHT22;9728;48.194;16.346;2024-03-02T21:51:13;17.30;75.00
19192;DHT22;9728;48.194;16.346;2024-03-02T21:56:18;17.30;75.00
19192;DHT22;9728;48.194;16.346;2024-03-02T22:01:22;17.30;75.10
19192;DHT22;9728;48.194;16.346;2024-03-02T22:06:27;17.30;75.00
19192;DHT22;9728;48.194;16.346;2024-03-02T22:11:31;17.20;75.00
19192;DHT22;9728;48.194;16.346;2024-03-02T22:16:35;17.20;75.00
19192;DHT22;9728;48.194;16.346;2024-03-02T22:21:38;17.20;75.00
19192;DHT22;9728;48.194;16.346;2024-03-02T22:26:43;17.10;75.00
19192;DHT22;9728;48.194;16.346;2024-03-02T22:31:47;17.10;75.10
19192;DHT22;9728;48.194;16.346;2024-03-02T22:36:50;17.00;75.10
19192;DHT22;9728;48.194;16.346;2024-03-02T22:41:55;17.00;75.20
19192;DHT22;9728;48.194;16.346;2024-03-02T22:46:58;17.00;75.40
19192;DHT22;9728;48.194;16.346;2024-03-02T22:52:02;17.00;75.40
19192;DHT22;9728;48.194;16.346;2024-03-02T22:57:07;16.90;75.40
19192;DHT22;9728;48.194;16.346;2024-03-02T23:02:18;17.00;75.60
19192;DHT22;9728;48.194;16.346;2024-03-02T23:07:22;17.00;75.60
19192;DHT22;9728;48.194;16.346;2024-03-02T23:12:27;17.00;75.60
19192;DHT22;9728;48.194;16.346;2024-03-02T23:17:30;17.00;75.60
19192;DHT22;9728;48.194;16.346;2024-03-02T23:22:34;17.00;75.60
19192;DHT22;9728;48.194;16.346;2024-03-02T23:27:38;16.90;75.60
19192;DHT22;9728;48.194;16.346;2024-03-02T23:32:42;16.90;75.70
19192;DHT22;9728;48.194;16.346;2024-03-02T23:37:45;16.90;75.60
19192;DHT22;9728;48.194;16.346;2024-03-02T23:42:50;16.90;75.60
19192;DHT22;9728;48.194;16.346;2024-03-02T23:47:53;16.90;75.60
19192;DHT22;9728;48.194;16.346;2024-03-02T23:52:57;16.90;75.60
19192;DHT22;9728;48.194;16.346;2024-03-02T23:58:02;16.90;75.70
